sensor_id;sensor_type;location;lat;lon;timestamp;pressure;altitude;pressure_sealevel;temperature;humidity
37238;BME280;23129;49.662;8.448;2022-12-11T00:01:16;100255.38;;;-2.01;100.00
37238;BME280;23129;49.662;8.448;2022-12-11T00:03:45;100251.13;;;-1.99;100.00
37238;BME280;23129;49.662;8.448;2022-12-11T00:06:16;100251.19;;;-1.96;100.00
37238;BME280;23129;49.662;8.448;2022-12-11T00:08:45;100253.75;;;-1.96;100.00
37238;BME280;23129;49.662;8.448;2022-12-11T00:11:15;100260.69;;;-1.93;100.00
37238;BME280;23129;49.662;8.448;2022-12-11T00:13:44;100265.00;;;-1.91;100.00
37238;BME280;23129;49.662;8.448;2022-12-11T00:16:13;100268.47;;;-1.89;100.00
37238;BME280;23129;49.662;8.448;2022-12-11T00:18:42;100265.88;;;-1.90;100.00
37238;BME280;23129;49.662;8.448;2022-12-11T00:21:13;100276.94;;;-1.93;100.00
37238;BME280;23129;49.662;8.448;2022-12-11T00:23:41;100271.81;;;-1.93;100.00
37238;BME280;23129;49.662;8.448;2022-12-11T00:26:14;100266.69;;;-1.93;100.00
37238;BME280;23129;49.662;8.448;2022-12-11T00:28:43;100269.31;;;-1.90;100.00
37238;BME280;23129;49.662;8.448;2022-12-11T00:31:16;100268.47;;;-1.89;100.00
37238;BME280;23129;49.662;8.448;2022-12-11T00:33:45;100264.22;;;-1.87;100.00
37238;BME280;23129;49.662;8.448;2022-12-11T00:36:17;100272.78;;;-1.86;100.00
37238;BME280;23129;49.662;8.448;2022-12-11T00:38:46;100268.56;;;-1.83;100.00
37238;BME280;23129;49.662;8.448;2022-12-11T00:41:17;100269.47;;;-1.80;100.00
37238;BME280;23129;49.662;8.448;2022-12-11T00:43:46;100277.25;;;-1.79;100.00
37238;BME280;23129;49.662;8.448;2022-12-11T00:46:14;100265.25;;;-1.78;100.00
37238;BME280;23129;49.662;8.448;2022-12-11T00:48:43;100270.44;;;-1.75;100.00
37238;BME280;23129;49.662;8.448;2022-12-11T00:51:12;100260.16;;;-1.75;100.00
37238;BME280;23129;49.662;8.448;2022-12-11T00:53:41;100251.66;;;-1.73;100.00
37238;BME280;23129;49.662;8.448;2022-12-11T00:56:11;100258.56;;;-1.70;100.00
37238;BME280;23129;49.662;8.448;2022-12-11T00:58:42;100253.47;;;-1.67;100.00
37238;BME280;23129;49.662;8.448;2022-12-11T01:01:12;100268.06;;;-1.65;100.00
37238;BME280;23129;49.662;8.448;2022-12-11T01:03:41;100260.38;;;-1.63;100.00
37238;BME280;23129;49.662;8.448;2022-12-11T01:06:13;100262.09;;;-1.62;100.00
37238;BME280;23129;49.662;8.448;2022-12-11T01:08:43;100272.44;;;-1.61;100.00
37238;BME280;23129;49.662;8.448;2022-12-11T01:11:15;100267.31;;;-1.59;100.00
37238;BME280;23129;49.662;8.448;2022-12-11T01:13:44;100270.78;;;-1.57;100.00
37238;BME280;23129;49.662;8.448;2022-12-11T01:16:14;100271.69;;;-1.55;100.00
37238;BME280;23129;49.662;8.448;2022-12-11T01:18:43;100260.56;;;-1.54;100.00
37238;BME280;23129;49.662;8.448;2022-12-11T01:21:13;100260.56;;;-1.54;100.00
37238;BME280;23129;49.662;8.448;2022-12-11T01:23:41;100275.94;;;-1.57;100.00
37238;BME280;23129;49.662;8.448;2022-12-11T01:26:12;100284.50;;;-1.58;100.00
37238;BME280;23129;49.662;8.448;2022-12-11T01:28:43;100264.72;;;-1.61;100.00
37238;BME280;23129;49.662;8.448;2022-12-11T01:31:14;100262.09;;;-1.64;100.00
37238;BME280;23129;49.662;8.448;2022-12-11T01:33:43;100262.00;;;-1.68;100.00
37238;BME280;23129;49.662;8.448;2022-12-11T01:36:15;100258.50;;;-1.73;100.00
37238;BME280;23129;49.662;8.448;2022-12-11T01:38:44;100255.81;;;-1.79;100.00
37238;BME280;23129;49.662;8.448;2022-12-11T01:41:13;100265.06;;;-1.88;100.00
37238;BME280;23129;49.662;8.448;2022-12-11T01:44:04;100266.63;;;-1.96;100.00
37238;BME280;23129;49.662;8.448;2022-12-11T01:46:35;100271.69;;;-1.99;100.00
37238;BME280;23129;49.662;8.448;2022-12-11T01:49:08;100262.97;;;-2.07;100.00
37238;BME280;23129;49.662;8.448;2022-12-11T01:51:41;100265.47;;;-2.10;100.00
37238;BME280;23129;49.662;8.448;2022-12-11T01:54:14;100262.03;;;-2.12;100.00
37238;BME280;23129;49.662;8.448;2022-12-11T01:56:45;100255.13;;;-2.13;100.00
37238;BME280;23129;49.662;8.448;2022-12-11T01:59:21;100250.84;;;-2.14;100.00
37238;BME280;23129;49.662;8.448;2022-12-11T02:01:57;100259.44;;;-2.12;100.00
37238;BME280;23129;49.662;8.448;2022-12-11T02:04:27;100265.47;;;-2.10;100.00
37238;BME280;23129;49.662;8.448;2022-12-11T02:06:56;100256.09;;;-2.08;100.00
37238;BME280;23129;49.662;8.448;2022-12-11T02:09:26;100257.81;;;-2.07;100.00
37238;BME280;23129;49.662;8.448;2022-12-11T02:12:05;100259.56;;;-2.06;100.00
37238;BME280;23129;49.662;8.448;2022-12-11T02:14:45;100264.72;;;-2.06;100.00
37238;BME280;23129;49.662;8.448;2022-12-11T02:17:18;100266.44;;;-2.05;100.00
37238;BME280;23129;49.662;8.448;2022-12-11T02:19:59;100265.59;;;-2.04;100.00
37238;BME280;23129;49.662;8.448;2022-12-11T02:22:52;100273.34;;;-2.01;100.00
37238;BME280;23129;49.662;8.448;2022-12-11T02:25:28;100270.84;;;-1.99;100.00
37238;BME280;23129;49.662;8.448;2022-12-11T02:28:17;100270.03;;;-1.97;100.00
37238;BME280;23129;49.662;8.448;2022-12-11T02:30:49;100282.09;;;-1.93;100.00
37238;BME280;23129;49.662;8.448;2022-12-11T02:33:24;100285.56;;;-1.91;100.00
37238;BME280;23129;49.662;8.448;2022-12-11T02:35:54;100286.50;;;-1.87;100.00
37238;BME280;23129;49.662;8.448;2022-12-11T02:38:28;100281.47;;;-1.81;100.00
37238;BME280;23129;49.662;8.448;2022-12-11T02:40:59;100281.59;;;-1.75;100.00
37238;BME280;23129;49.662;8.448;2022-12-11T02:43:32;100275.69;;;-1.69;100.00
37238;BME280;23129;49.662;8.448;2022-12-11T02:46:03;100278.38;;;-1.63;100.00
37238;BME280;23129;49.662;8.448;2022-12-11T02:48:34;100275.91;;;-1.58;100.00
37238;BME280;23129;49.662;8.448;2022-12-11T02:51:05;100275.97;;;-1.54;100.00
37238;BME280;23129;49.662;8.448;2022-12-11T02:53:37;100272.63;;;-1.50;100.00
37238;BME280;23129;49.662;8.448;2022-12-11T02:56:11;100273.56;;;-1.45;100.00
37238;BME280;23129;49.662;8.448;2022-12-11T02:58:47;100285.69;;;-1.39;100.00
37238;BME280;23129;49.662;8.448;2022-12-11T03:01:25;100272.91;;;-1.34;100.00
37238;BME280;23129;49.662;8.448;2022-12-11T03:03:54;100270.41;;;-1.30;100.00
37238;BME280;23129;49.662;8.448;2022-12-11T03:06:28;100273.88;;;-1.28;100.00
37238;BME280;23129;49.662;8.448;2022-12-11T03:08:59;100268.75;;;-1.26;100.00
37238;BME280;23129;49.662;8.448;2022-12-11T03:11:28;100264.44;;;-1.27;100.00
37238;BME280;23129;49.662;8.448;2022-12-11T03:13:58;100266.06;;;-1.32;100.00
37238;BME280;23129;49.662;8.448;2022-12-11T03:16:34;100269.50;;;-1.33;100.00
37238;BME280;23129;49.662;8.448;2022-12-11T03:19:12;100262.63;;;-1.34;100.00
37238;BME280;23129;49.662;8.448;2022-12-11T03:21:47;100260.06;;;-1.34;100.00
37238;BME280;23129;49.662;8.448;2022-12-11T03:24:21;100262.59;;;-1.36;100.00
37238;BME280;23129;49.662;8.448;2022-12-11T03:26:57;100260.00;;;-1.38;100.00
37238;BME280;23129;49.662;8.448;2022-12-11T03:29:33;100252.22;;;-1.41;100.00
37238;BME280;23129;49.662;8.448;2022-12-11T03:32:07;100260.72;;;-1.45;100.00
37238;BME280;23129;49.662;8.448;2022-12-11T03:34:43;100256.38;;;-1.49;100.00
37238;BME280;23129;49.662;8.448;2022-12-11T03:37:13;100258.94;;;-1.49;100.00
37238;BME280;23129;49.662;8.448;2022-12-11T03:39:46;100276.03;;;-1.51;100.00
37238;BME280;23129;49.662;8.448;2022-12-11T03:42:17;100273.47;;;-1.51;100.00
37238;BME280;23129;49.662;8.448;2022-12-11T03:44:50;100271.75;;;-1.50;100.00
37238;BME280;23129;49.662;8.448;2022-12-11T03:47:24;100263.22;;;-1.48;100.00
37238;BME280;23129;49.662;8.448;2022-12-11T03:49:55;100272.66;;;-1.47;100.00
37238;BME280;23129;49.662;8.448;2022-12-11T03:52:25;100272.72;;;-1.44;100.00
37238;BME280;23129;49.662;8.448;2022-12-11T03:54:59;100275.38;;;-1.41;100.00
37238;BME280;23129;49.662;8.448;2022-12-11T03:57:35;100267.72;;;-1.38;100.00
37238;BME280;23129;49.662;8.448;2022-12-11T04:00:08;100269.50;;;-1.33;100.00
37238;BME280;23129;49.662;8.448;2022-12-11T04:02:40;100270.41;;;-1.30;100.00
37238;BME280;23129;49.662;8.448;2022-12-11T04:05:10;100268.75;;;-1.26;100.00
37238;BME280;23129;49.662;8.448;2022-12-11T04:07:39;100267.94;;;-1.25;100.00
37238;BME280;23129;49.662;8.448;2022-12-11T04:10:07;100264.50;;;-1.24;100.00
37238;BME280;23129;49.662;8.448;2022-12-11T04:12:36;100263.66;;;-1.23;100.00
37238;BME280;23129;49.662;8.448;2022-12-11T04:15:06;100256.84;;;-1.21;100.00
37238;BME280;23129;49.662;8.448;2022-12-11T04:17:35;100260.31;;;-1.19;100.00
37238;BME280;23129;49.662;8.448;2022-12-11T04:20:27;100258.59;;;-1.17;100.00
37238;BME280;23129;49.662;8.448;2022-12-11T04:23:17;100261.22;;;-1.14;100.00
37238;BME280;23129;49.662;8.448;2022-12-11T04:26:04;100264.75;;;-1.10;100.00
37238;BME280;23129;49.662;8.448;2022-12-11T04:28:33;100260.47;;;-1.08;100.00
37238;BME280;23129;49.662;8.448;2022-12-11T04:31:04;100264.81;;;-1.06;100.00
37238;BME280;23129;49.662;8.448;2022-12-11T04:33:32;100261.38;;;-1.05;100.00
37238;BME280;23129;49.662;8.448;2022-12-11T04:36:01;100269.13;;;-1.03;100.00
37238;BME280;23129;49.662;8.448;2022-12-11T04:38:29;100270.03;;;-1.00;100.00
37238;BME280;23129;49.662;8.448;2022-12-11T04:40:58;100270.91;;;-0.99;100.00
37238;BME280;23129;49.662;8.448;2022-12-11T04:43:27;100265.75;;;-0.99;100.00
37238;BME280;23129;49.662;8.448;2022-12-11T04:46:05;100256.28;;;-1.02;100.00
37238;BME280;23129;49.662;8.448;2022-12-11T04:48:33;100262.31;;;-1.01;100.00
37238;BME280;23129;49.662;8.448;2022-12-11T04:51:02;100265.66;;;-1.05;100.00
37238;BME280;23129;49.662;8.448;2022-12-11T04:53:31;100263.88;;;-1.09;100.00
37238;BME280;23129;49.662;8.448;2022-12-11T04:55:59;100266.44;;;-1.11;100.00
37238;BME280;23129;49.662;8.448;2022-12-11T04:58:28;100256.09;;;-1.14;100.00
37238;BME280;23129;49.662;8.448;2022-12-11T05:00:57;100260.28;;;-1.21;100.00
37238;BME280;23129;49.662;8.448;2022-12-11T05:03:27;100267.03;;;-1.26;100.00
37238;BME280;23129;49.662;8.448;2022-12-11T05:05:56;100268.69;;;-1.31;100.00
37238;BME280;23129;49.662;8.448;2022-12-11T05:08:24;100271.22;;;-1.32;100.00
37238;BME280;23129;49.662;8.448;2022-12-11T05:10:56;100262.69;;;-1.31;100.00
37238;BME280;23129;49.662;8.448;2022-12-11T05:13:27;100259.25;;;-1.30;100.00
37238;BME280;23129;49.662;8.448;2022-12-11T05:15:56;100254.91;;;-1.33;100.00
37238;BME280;23129;49.662;8.448;2022-12-11T05:18:26;100243.72;;;-1.36;100.00
37238;BME280;23129;49.662;8.448;2022-12-11T05:20:55;100243.63;;;-1.41;100.00
37238;BME280;23129;49.662;8.448;2022-12-11T05:23:24;100240.09;;;-1.48;100.00
37238;BME280;23129;49.662;8.448;2022-12-11T05:25:54;100239.94;;;-1.57;100.00
37238;BME280;23129;49.662;8.448;2022-12-11T05:28:25;100244.91;;;-1.65;100.00
37238;BME280;23129;49.662;8.448;2022-12-11T05:30:56;100243.94;;;-1.73;100.00
37238;BME280;23129;49.662;8.448;2022-12-11T05:33:27;100246.34;;;-1.80;100.00
37238;BME280;23129;49.662;8.448;2022-12-11T05:35:56;100239.38;;;-1.88;100.00
37238;BME280;23129;49.662;8.448;2022-12-11T05:38:25;100237.56;;;-1.92;100.00
37238;BME280;23129;49.662;8.448;2022-12-11T05:40:57;100239.19;;;-1.97;100.00
37238;BME280;23129;49.662;8.448;2022-12-11T05:43:27;100236.56;;;-2.00;100.00
37238;BME280;23129;49.662;8.448;2022-12-11T05:46:05;100233.94;;;-2.03;100.00
37238;BME280;23129;49.662;8.448;2022-12-11T05:48:35;100236.50;;;-2.03;100.00
37238;BME280;23129;49.662;8.448;2022-12-11T05:51:05;100235.59;;;-2.05;100.00
37238;BME280;23129;49.662;8.448;2022-12-11T05:53:35;100232.19;;;-2.04;100.00
37238;BME280;23129;49.662;8.448;2022-12-11T05:56:06;100235.63;;;-2.03;100.00
37238;BME280;23129;49.662;8.448;2022-12-11T05:58:35;100244.22;;;-2.03;100.00
37238;BME280;23129;49.662;8.448;2022-12-11T06:01:07;100235.59;;;-2.05;100.00
37238;BME280;23129;49.662;8.448;2022-12-11T06:03:37;100233.91;;;-2.04;100.00
37238;BME280;23129;49.662;8.448;2022-12-11T06:06:06;100231.31;;;-2.04;100.00
37238;BME280;23129;49.662;8.448;2022-12-11T06:08:35;100235.59;;;-2.05;100.00
37238;BME280;23129;49.662;8.448;2022-12-11T06:11:04;100230.47;;;-2.05;100.00
37238;BME280;23129;49.662;8.448;2022-12-11T06:13:33;100233.91;;;-2.04;100.00
37238;BME280;23129;49.662;8.448;2022-12-11T06:16:04;100227.00;;;-2.07;100.00
37238;BME280;23129;49.662;8.448;2022-12-11T06:18:37;100238.97;;;-2.09;100.00
37238;BME280;23129;49.662;8.448;2022-12-11T06:21:13;100231.22;;;-2.11;100.00
37238;BME280;23129;49.662;8.448;2022-12-11T06:23:44;100221.78;;;-2.10;100.00
37238;BME280;23129;49.662;8.448;2022-12-11T06:26:14;100222.69;;;-2.08;100.00
37238;BME280;23129;49.662;8.448;2022-12-11T06:28:43;100216.72;;;-2.07;100.00
37238;BME280;23129;49.662;8.448;2022-12-11T06:31:12;100214.13;;;-2.07;100.00
37238;BME280;23129;49.662;8.448;2022-12-11T06:33:43;100216.66;;;-2.10;100.00
37238;BME280;23129;49.662;8.448;2022-12-11T06:36:14;100225.22;;;-2.11;100.00
37238;BME280;23129;49.662;8.448;2022-12-11T06:38:43;100211.50;;;-2.10;100.00
37238;BME280;23129;49.662;8.448;2022-12-11T06:41:12;100209.78;;;-2.11;100.00
37238;BME280;23129;49.662;8.448;2022-12-11T06:43:42;100205.50;;;-2.12;100.00
37238;BME280;23129;49.662;8.448;2022-12-11T06:46:12;100214.88;;;-2.13;100.00
37238;BME280;23129;49.662;8.448;2022-12-11T06:48:44;100220.00;;;-2.14;100.00
37238;BME280;23129;49.662;8.448;2022-12-11T06:51:15;100211.47;;;-2.13;100.00
37238;BME280;23129;49.662;8.448;2022-12-11T06:53:49;100216.59;;;-2.13;100.00
37238;BME280;23129;49.662;8.448;2022-12-11T06:56:19;100214.88;;;-2.14;100.00
37238;BME280;23129;49.662;8.448;2022-12-11T06:58:48;100210.59;;;-2.14;100.00
37238;BME280;23129;49.662;8.448;2022-12-11T07:01:19;100202.88;;;-2.15;100.00
37238;BME280;23129;49.662;8.448;2022-12-11T07:03:52;100199.41;;;-2.17;100.00
37238;BME280;23129;49.662;8.448;2022-12-11T07:06:21;100211.34;;;-2.19;100.00
37238;BME280;23129;49.662;8.448;2022-12-11T07:08:51;100205.28;;;-2.23;100.00
37238;BME280;23129;49.662;8.448;2022-12-11T07:11:20;100205.22;;;-2.26;100.00
37238;BME280;23129;49.662;8.448;2022-12-11T07:13:48;100197.47;;;-2.27;100.00
37238;BME280;23129;49.662;8.448;2022-12-11T07:16:17;100208.63;;;-2.27;100.00
37238;BME280;23129;49.662;8.448;2022-12-11T07:18:49;100203.50;;;-2.25;100.00
37238;BME280;23129;49.662;8.448;2022-12-11T07:21:19;100201.91;;;-2.19;100.00
37238;BME280;23129;49.662;8.448;2022-12-11T07:23:48;100201.19;;;-2.13;100.00
37238;BME280;23129;49.662;8.448;2022-12-11T07:26:19;100208.13;;;-2.09;100.00
37238;BME280;23129;49.662;8.448;2022-12-11T07:28:49;100207.34;;;-2.03;100.00
37238;BME280;23129;49.662;8.448;2022-12-11T07:31:20;100207.44;;;-2.00;100.00
37238;BME280;23129;49.662;8.448;2022-12-11T07:33:53;100208.34;;;-1.97;100.00
37238;BME280;23129;49.662;8.448;2022-12-11T07:36:23;100212.72;;;-1.93;100.00
37238;BME280;23129;49.662;8.448;2022-12-11T07:38:52;100215.34;;;-1.90;100.00
37238;BME280;23129;49.662;8.448;2022-12-11T07:41:21;100217.13;;;-1.86;100.00
37238;BME280;23129;49.662;8.448;2022-12-11T07:43:53;100233.53;;;-1.79;100.00
37238;BME280;23129;49.662;8.448;2022-12-11T07:46:24;100225.09;;;-1.72;100.00
37238;BME280;23129;49.662;8.448;2022-12-11T07:48:54;100233.00;;;-1.61;100.00
37238;BME280;23129;49.662;8.448;2022-12-11T07:51:24;100233.16;;;-1.52;100.00
37238;BME280;23129;49.662;8.448;2022-12-11T07:53:56;100239.34;;;-1.42;100.00
37238;BME280;23129;49.662;8.448;2022-12-11T07:56:26;100247.19;;;-1.34;100.00
37238;BME280;23129;49.662;8.448;2022-12-11T07:58:55;100247.28;;;-1.28;100.00
37238;BME280;23129;49.662;8.448;2022-12-11T08:01:25;100250.78;;;-1.23;100.00
37238;BME280;23129;49.662;8.448;2022-12-11T08:03:55;100245.69;;;-1.20;100.00
37238;BME280;23129;49.662;8.448;2022-12-11T08:06:26;100244.06;;;-1.17;100.00
37238;BME280;23129;49.662;8.448;2022-12-11T08:08:57;100238.91;;;-1.17;100.00
37238;BME280;23129;49.662;8.448;2022-12-11T08:11:27;100239.78;;;-1.16;100.00
37238;BME280;23129;49.662;8.448;2022-12-11T08:13:56;100243.22;;;-1.16;100.00
37238;BME280;23129;49.662;8.448;2022-12-11T08:16:26;100238.06;;;-1.14;100.00
37238;BME280;23129;49.662;8.448;2022-12-11T08:18:57;100244.13;;;-1.12;100.00
37238;BME280;23129;49.662;8.448;2022-12-11T08:21:27;100241.59;;;-1.09;100.00
37238;BME280;23129;49.662;8.448;2022-12-11T08:23:56;100245.06;;;-1.05;100.00
37238;BME280;23129;49.662;8.448;2022-12-11T08:26:28;100242.59;;;-0.99;100.00
37238;BME280;23129;49.662;8.448;2022-12-11T08:28:57;100244.41;;;-0.94;100.00
37238;BME280;23129;49.662;8.448;2022-12-11T08:31:28;100242.78;;;-0.88;100.00
37238;BME280;23129;49.662;8.448;2022-12-11T08:33:58;100234.25;;;-0.84;100.00
37238;BME280;23129;49.662;8.448;2022-12-11T08:36:26;100235.19;;;-0.79;100.00
37238;BME280;23129;49.662;8.448;2022-12-11T08:38:55;100229.22;;;-0.75;100.00
37238;BME280;23129;49.662;8.448;2022-12-11T08:41:25;100238.75;;;-0.70;100.00
37238;BME280;23129;49.662;8.448;2022-12-11T08:43:54;100243.09;;;-0.67;100.00
37238;BME280;23129;49.662;8.448;2022-12-11T08:46:25;100230.25;;;-0.65;100.00
37238;BME280;23129;49.662;8.448;2022-12-11T08:48:55;100237.06;;;-0.66;100.00
37238;BME280;23129;49.662;8.448;2022-12-11T08:51:27;100237.94;;;-0.67;100.00
37238;BME280;23129;49.662;8.448;2022-12-11T08:53:59;100237.91;;;-0.70;100.00
37238;BME280;23129;49.662;8.448;2022-12-11T08:56:29;100231.88;;;-0.69;100.00
37238;BME280;23129;49.662;8.448;2022-12-11T08:58:59;100231.03;;;-0.71;100.00
37238;BME280;23129;49.662;8.448;2022-12-11T09:01:28;100238.69;;;-0.74;100.00
37238;BME280;23129;49.662;8.448;2022-12-11T09:03:57;100237.84;;;-0.75;100.00
37238;BME280;23129;49.662;8.448;2022-12-11T09:06:28;100243.84;;;-0.74;100.00
37238;BME280;23129;49.662;8.448;2022-12-11T09:08:59;100251.56;;;-0.74;100.00
37238;BME280;23129;49.662;8.448;2022-12-11T09:11:29;100243.00;;;-0.73;100.00
37238;BME280;23129;49.662;8.448;2022-12-11T09:13:59;100244.75;;;-0.69;100.00
37238;BME280;23129;49.662;8.448;2022-12-11T09:16:36;100244.84;;;-0.63;100.00
37238;BME280;23129;49.662;8.448;2022-12-11T09:19:08;100244.13;;;-0.54;100.00
37238;BME280;23129;49.662;8.448;2022-12-11T09:21:40;100240.81;;;-0.46;100.00
37238;BME280;23129;49.662;8.448;2022-12-11T09:24:10;100237.47;;;-0.37;100.00
37238;BME280;23129;49.662;8.448;2022-12-11T09:26:40;100233.31;;;-0.27;100.00
37238;BME280;23129;49.662;8.448;2022-12-11T09:29:10;100230.91;;;-0.15;100.00
37238;BME280;23129;49.662;8.448;2022-12-11T09:31:39;100231.84;;;-0.07;100.00
37238;BME280;23129;49.662;8.448;2022-12-11T09:34:10;100235.41;;;0.05;100.00
37238;BME280;23129;49.662;8.448;2022-12-11T09:36:41;100234.75;;;0.22;100.00
37238;BME280;23129;49.662;8.448;2022-12-11T09:39:12;100233.19;;;0.37;100.00
37238;BME280;23129;49.662;8.448;2022-12-11T09:41:48;100229.78;;;0.41;100.00
37238;BME280;23129;49.662;8.448;2022-12-11T09:44:29;100227.16;;;0.36;100.00
37238;BME280;23129;49.662;8.448;2022-12-11T09:46:59;100227.13;;;0.33;100.00
37238;BME280;23129;49.662;8.448;2022-12-11T09:49:33;100231.41;;;0.31;100.00
37238;BME280;23129;49.662;8.448;2022-12-11T09:52:13;100230.59;;;0.35;100.00
37238;BME280;23129;49.662;8.448;2022-12-11T09:54:48;100220.44;;;0.52;100.00
37238;BME280;23129;49.662;8.448;2022-12-11T09:57:34;100215.44;;;0.69;100.00
37238;BME280;23129;49.662;8.448;2022-12-11T10:00:19;100218.91;;;0.74;100.00
37238;BME280;23129;49.662;8.448;2022-12-11T10:03:21;100209.41;;;0.70;100.00
37238;BME280;23129;49.662;8.448;2022-12-11T10:06:00;100218.00;;;0.69;100.00
37238;BME280;23129;49.662;8.448;2022-12-11T10:08:37;100213.63;;;0.62;100.00
37238;BME280;23129;49.662;8.448;2022-12-11T10:11:31;100211.88;;;0.58;100.00
37238;BME280;23129;49.662;8.448;2022-12-11T10:14:12;100215.28;;;0.57;100.00
37238;BME280;23129;49.662;8.448;2022-12-11T10:16:46;100210.13;;;0.57;100.00
37238;BME280;23129;49.662;8.448;2022-12-11T10:19:21;100208.44;;;0.59;100.00
37238;BME280;23129;49.662;8.448;2022-12-11T10:21:52;100217.88;;;0.55;100.00
37238;BME280;23129;49.662;8.448;2022-12-11T10:24:30;100210.97;;;0.51;100.00
37238;BME280;23129;49.662;8.448;2022-12-11T10:27:24;100212.69;;;0.52;100.00
37238;BME280;23129;49.662;8.448;2022-12-11T10:30:06;100199.78;;;0.54;100.00
37238;BME280;23129;49.662;8.448;2022-12-11T10:32:42;100202.44;;;0.58;100.00
37238;BME280;23129;49.662;8.448;2022-12-11T10:35:21;100197.34;;;0.66;100.00
37238;BME280;23129;49.662;8.448;2022-12-11T10:40:28;100180.25;;;0.83;100.00
37238;BME280;23129;49.662;8.448;2022-12-11T10:42:58;100182.81;;;0.80;100.00
37238;BME280;23129;49.662;8.448;2022-12-11T10:45:26;100179.34;;;0.75;100.00
37238;BME280;23129;49.662;8.448;2022-12-11T10:48:08;100181.06;;;0.76;100.00
37238;BME280;23129;49.662;8.448;2022-12-11T10:50:37;100172.47;;;0.77;100.00
37238;BME280;23129;49.662;8.448;2022-12-11T10:53:16;100174.19;;;0.75;100.00
37238;BME280;23129;49.662;8.448;2022-12-11T10:55:48;100170.72;;;0.73;100.00
37238;BME280;23129;49.662;8.448;2022-12-11T10:58:19;100173.28;;;0.75;100.00
37238;BME280;23129;49.662;8.448;2022-12-11T11:01:03;100169.84;;;0.73;100.00
37238;BME280;23129;49.662;8.448;2022-12-11T11:03:35;100165.56;;;0.76;100.00
37238;BME280;23129;49.662;8.448;2022-12-11T11:06:15;100167.31;;;0.80;100.00
37238;BME280;23129;49.662;8.448;2022-12-11T11:08:46;100157.91;;;0.85;100.00
37238;BME280;23129;49.662;8.448;2022-12-11T11:11:26;100160.47;;;0.85;100.00
37238;BME280;23129;49.662;8.448;2022-12-11T11:14:14;100151.88;;;0.85;100.00
37238;BME280;23129;49.662;8.448;2022-12-11T11:16:44;100151.84;;;0.83;100.00
37238;BME280;23129;49.662;8.448;2022-12-11T11:19:21;100147.56;;;0.85;100.00
37238;BME280;23129;49.662;8.448;2022-12-11T11:21:53;100144.16;;;0.88;100.00
37238;BME280;23129;49.662;8.448;2022-12-11T11:24:34;100139.00;;;0.93;100.00
37238;BME280;23129;49.662;8.448;2022-12-11T11:27:13;100142.50;;;1.01;100.00
37238;BME280;23129;49.662;8.448;2022-12-11T11:29:46;100140.81;;;1.03;100.00
37238;BME280;23129;49.662;8.448;2022-12-11T11:32:22;100135.63;;;1.04;100.00
37238;BME280;23129;49.662;8.448;2022-12-11T11:34:52;100133.94;;;1.06;100.00
37238;BME280;23129;49.662;8.448;2022-12-11T11:37:26;100139.97;;;1.10;100.00
37238;BME280;23129;49.662;8.448;2022-12-11T11:40:02;100128.81;;;1.14;100.00
37238;BME280;23129;49.662;8.448;2022-12-11T11:42:43;100136.59;;;1.17;100.00
37238;BME280;23129;49.662;8.448;2022-12-11T11:45:19;100137.41;;;1.16;100.00
37238;BME280;23129;49.662;8.448;2022-12-11T11:47:57;100131.41;;;1.14;100.00
37238;BME280;23129;49.662;8.448;2022-12-11T11:50:37;100127.97;;;1.15;100.00
37238;BME280;23129;49.662;8.448;2022-12-11T11:53:15;100131.41;;;1.17;100.00
37238;BME280;23129;49.662;8.448;2022-12-11T11:55:53;100126.25;;;1.17;100.00
37238;BME280;23129;49.662;8.448;2022-12-11T11:58:31;100125.44;;;1.23;100.00
37238;BME280;23129;49.662;8.448;2022-12-11T12:01:12;100126.25;;;1.22;100.00
37238;BME280;23129;49.662;8.448;2022-12-11T12:03:42;100128.84;;;1.17;100.00
37238;BME280;23129;49.662;8.448;2022-12-11T12:06:17;100131.41;;;1.14;100.00
37238;BME280;23129;49.662;8.448;2022-12-11T12:08:55;100133.94;;;1.09;100.00
37238;BME280;23129;49.662;8.448;2022-12-11T12:11:32;100128.78;;;1.08;100.00
37238;BME280;23129;49.662;8.448;2022-12-11T12:14:14;100123.63;;;1.08;100.00
37238;BME280;23129;49.662;8.448;2022-12-11T12:17:13;100129.63;;;1.10;100.00
37238;BME280;23129;49.662;8.448;2022-12-11T12:19:55;100127.91;;;1.07;100.00
37238;BME280;23129;49.662;8.448;2022-12-11T12:22:39;100131.34;;;1.05;100.00
37238;BME280;23129;49.662;8.448;2022-12-11T12:25:20;100127.06;;;1.05;100.00
37238;BME280;23129;49.662;8.448;2022-12-11T12:27:59;100127.91;;;1.06;100.00
37238;BME280;23129;49.662;8.448;2022-12-11T12:30:44;100124.44;;;1.04;100.00
37238;BME280;23129;49.662;8.448;2022-12-11T12:33:25;100129.59;;;1.01;100.00
37238;BME280;23129;49.662;8.448;2022-12-11T12:36:05;100123.56;;;0.97;100.00
37238;BME280;23129;49.662;8.448;2022-12-11T12:38:46;100118.34;;;0.93;100.00
37238;BME280;23129;49.662;8.448;2022-12-11T12:41:22;100120.94;;;0.93;100.00
37238;BME280;23129;49.662;8.448;2022-12-11T12:44:01;100117.50;;;0.90;100.00
37238;BME280;23129;49.662;8.448;2022-12-11T12:46:53;100119.22;;;0.91;100.00
37238;BME280;23129;49.662;8.448;2022-12-11T12:49:32;100119.25;;;0.98;100.00
37238;BME280;23129;49.662;8.448;2022-12-11T12:52:04;100116.69;;;0.99;100.00
37238;BME280;23129;49.662;8.448;2022-12-11T12:54:34;100114.94;;;1.01;100.00
37238;BME280;23129;49.662;8.448;2022-12-11T12:57:03;100112.38;;;1.00;100.00
37238;BME280;23129;49.662;8.448;2022-12-11T12:59:32;100113.25;;;1.00;100.00
37238;BME280;23129;49.662;8.448;2022-12-11T13:02:03;100108.06;;;1.00;100.00
37238;BME280;23129;49.662;8.448;2022-12-11T13:04:39;100108.94;;;1.01;100.00
37238;BME280;23129;49.662;8.448;2022-12-11T13:07:27;100117.56;;;1.03;100.00
37238;BME280;23129;49.662;8.448;2022-12-11T13:10:04;100103.78;;;1.01;100.00
37238;BME280;23129;49.662;8.448;2022-12-11T13:12:42;100105.47;;;0.99;100.00
37238;BME280;23129;49.662;8.448;2022-12-11T13:15:30;100108.91;;;0.98;100.00